sensor_id;sensor_type;location;lat;lon;timestamp;temperature;humidity
18597;DHT22;9428;50.950;6.912;2023-08-31T00:00:10;14.80;99.90
18597;DHT22;9428;50.950;6.912;2023-08-31T00:02:59;14.80;99.90
18597;DHT22;9428;50.950;6.912;2023-08-31T00:05:46;14.80;99.90
18597;DHT22;9428;50.950;6.912;2023-08-31T00:08:38;14.80;99.90
18597;DHT22;9428;50.950;6.912;2023-08-31T00:11:25;14.70;99.90
18597;DHT22;9428;50.950;6.912;2023-08-31T00:14:12;14.70;99.90
18597;DHT22;9428;50.950;6.912;2023-08-31T00:17:00;14.70;99.90
18597;DHT22;9428;50.950;6.912;2023-08-31T00:19:47;14.60;99.90
18597;DHT22;9428;50.950;6.912;2023-08-31T00:22:34;14.70;99.90
18597;DHT22;9428;50.950;6.912;2023-08-31T00:25:23;14.60;99.90
18597;DHT22;9428;50.950;6.912;2023-08-31T00:28:10;14.60;99.90
18597;DHT22;9428;50.950;6.912;2023-08-31T00:31:00;14.60;99.90
18597;DHT22;9428;50.950;6.912;2023-08-31T00:33:49;15.00;99.90
18597;DHT22;9428;50.950;6.912;2023-08-31T00:36:37;14.50;99.90
18597;DHT22;9428;50.950;6.912;2023-08-31T00:39:24;14.50;99.90
18597;DHT22;9428;50.950;6.912;2023-08-31T00:42:15;14.50;99.90
18597;DHT22;9428;50.950;6.912;2023-08-31T00:45:04;14.40;99.90
18597;DHT22;9428;50.950;6.912;2023-08-31T00:47:53;14.40;99.90
18597;DHT22;9428;50.950;6.912;2023-08-31T00:50:40;14.40;99.90
18597;DHT22;9428;50.950;6.912;2023-08-31T00:53:28;14.50;99.90
18597;DHT22;9428;50.950;6.912;2023-08-31T00:56:17;14.40;99.90
18597;DHT22;9428;50.950;6.912;2023-08-31T00:59:05;14.40;99.90
18597;DHT22;9428;50.950;6.912;2023-08-31T01:02:01;15.50;99.90
18597;DHT22;9428;50.950;6.912;2023-08-31T01:04:57;14.50;99.90
18597;DHT22;9428;50.950;6.912;2023-08-31T01:07:50;14.50;99.90
18597;DHT22;9428;50.950;6.912;2023-08-31T01:10:43;14.60;99.90
18597;DHT22;9428;50.950;6.912;2023-08-31T01:13:34;14.50;99.90
18597;DHT22;9428;50.950;6.912;2023-08-31T01:16:24;14.30;99.90
18597;DHT22;9428;50.950;6.912;2023-08-31T01:19:24;14.50;99.90
18597;DHT22;9428;50.950;6.912;2023-08-31T01:22:23;15.10;99.90
18597;DHT22;9428;50.950;6.912;2023-08-31T01:25:13;14.40;99.90
18597;DHT22;9428;50.950;6.912;2023-08-31T01:28:01;14.40;99.90
18597;DHT22;9428;50.950;6.912;2023-08-31T01:30:49;14.30;99.90
18597;DHT22;9428;50.950;6.912;2023-08-31T01:33:36;14.50;99.90
18597;DHT22;9428;50.950;6.912;2023-08-31T01:36:27;14.40;99.90
18597;DHT22;9428;50.950;6.912;2023-08-31T01:39:17;14.20;99.90
18597;DHT22;9428;50.950;6.912;2023-08-31T01:42:11;14.20;99.90
18597;DHT22;9428;50.950;6.912;2023-08-31T01:45:01;14.10;99.90
18597;DHT22;9428;50.950;6.912;2023-08-31T01:47:50;14.20;99.90
18597;DHT22;9428;50.950;6.912;2023-08-31T01:50:37;14.10;99.90
18597;DHT22;9428;50.950;6.912;2023-08-31T01:53:24;14.00;99.90
18597;DHT22;9428;50.950;6.912;2023-08-31T01:56:12;13.90;99.90
18597;DHT22;9428;50.950;6.912;2023-08-31T01:59:01;14.20;99.90
18597;DHT22;9428;50.950;6.912;2023-08-31T02:01:48;14.10;99.90
18597;DHT22;9428;50.950;6.912;2023-08-31T02:04:35;14.20;99.90
18597;DHT22;9428;50.950;6.912;2023-08-31T02:07:22;14.10;99.90
18597;DHT22;9428;50.950;6.912;2023-08-31T02:10:10;14.10;99.90
18597;DHT22;9428;50.950;6.912;2023-08-31T02:12:57;14.00;99.90
18597;DHT22;9428;50.950;6.912;2023-08-31T02:15:46;13.90;99.90
18597;DHT22;9428;50.950;6.912;2023-08-31T02:18:33;14.50;99.90
18597;DHT22;9428;50.950;6.912;2023-08-31T02:21:20;13.90;99.90
18597;DHT22;9428;50.950;6.912;2023-08-31T02:24:08;13.90;99.90
18597;DHT22;9428;50.950;6.912;2023-08-31T02:26:56;13.90;99.90
18597;DHT22;9428;50.950;6.912;2023-08-31T02:29:43;14.40;99.90
18597;DHT22;9428;50.950;6.912;2023-08-31T02:32:32;13.80;99.90
18597;DHT22;9428;50.950;6.912;2023-08-31T02:35:19;14.10;99.90
18597;DHT22;9428;50.950;6.912;2023-08-31T02:38:06;13.40;99.90
18597;DHT22;9428;50.950;6.912;2023-08-31T02:40:53;14.00;99.90
18597;DHT22;9428;50.950;6.912;2023-08-31T02:43:40;13.70;99.90
18597;DHT22;9428;50.950;6.912;2023-08-31T02:46:28;13.80;99.90
18597;DHT22;9428;50.950;6.912;2023-08-31T02:49:16;13.80;99.90
18597;DHT22;9428;50.950;6.912;2023-08-31T02:52:04;13.70;99.90
18597;DHT22;9428;50.950;6.912;2023-08-31T02:54:51;13.70;99.90
18597;DHT22;9428;50.950;6.912;2023-08-31T02:57:38;13.60;99.90
18597;DHT22;9428;50.950;6.912;2023-08-31T03:00:26;13.80;99.90
18597;DHT22;9428;50.950;6.912;2023-08-31T03:03:14;13.70;99.90
18597;DHT22;9428;50.950;6.912;2023-08-31T03:06:03;13.60;99.90
18597;DHT22;9428;50.950;6.912;2023-08-31T03:08:50;13.60;99.90
18597;DHT22;9428;50.950;6.912;2023-08-31T03:11:37;13.60;99.90
18597;DHT22;9428;50.950;6.912;2023-08-31T03:14:24;13.60;99.90
18597;DHT22;9428;50.950;6.912;2023-08-31T03:17:11;13.60;99.90
18597;DHT22;9428;50.950;6.912;2023-08-31T03:19:59;13.70;99.90
18597;DHT22;9428;50.950;6.912;2023-08-31T03:22:47;14.10;99.90
18597;DHT22;9428;50.950;6.912;2023-08-31T03:25:35;13.90;99.90
18597;DHT22;9428;50.950;6.912;2023-08-31T03:28:22;13.60;99.90
18597;DHT22;9428;50.950;6.912;2023-08-31T03:31:09;13.60;99.90
18597;DHT22;9428;50.950;6.912;2023-08-31T03:33:56;13.70;99.90
18597;DHT22;9428;50.950;6.912;2023-08-31T03:36:44;14.50;99.90
18597;DHT22;9428;50.950;6.912;2023-08-31T03:39:32;13.80;99.90
18597;DHT22;9428;50.950;6.912;2023-08-31T03:42:20;13.90;99.90
18597;DHT22;9428;50.950;6.912;2023-08-31T03:45:07;13.80;99.90
18597;DHT22;9428;50.950;6.912;2023-08-31T03:47:54;14.00;99.90
18597;DHT22;9428;50.950;6.912;2023-08-31T03:50:42;14.00;99.90
18597;DHT22;9428;50.950;6.912;2023-08-31T03:53:29;13.90;99.90
18597;DHT22;9428;50.950;6.912;2023-08-31T03:56:18;14.30;99.90
18597;DHT22;9428;50.950;6.912;2023-08-31T03:59:05;14.00;99.90
18597;DHT22;9428;50.950;6.912;2023-08-31T04:01:52;14.00;99.90
18597;DHT22;9428;50.950;6.912;2023-08-31T04:04:40;14.20;99.90
18597;DHT22;9428;50.950;6.912;2023-08-31T04:07:27;14.10;99.90
18597;DHT22;9428;50.950;6.912;2023-08-31T04:10:14;14.00;99.90
18597;DHT22;9428;50.950;6.912;2023-08-31T04:13:03;14.00;99.90
18597;DHT22;9428;50.950;6.912;2023-08-31T04:15:51;14.00;99.90
18597;DHT22;9428;50.950;6.912;2023-08-31T04:18:39;13.90;99.90
18597;DHT22;9428;50.950;6.912;2023-08-31T04:21:26;13.90;99.90
18597;DHT22;9428;50.950;6.912;2023-08-31T04:24:13;13.90;99.90
18597;DHT22;9428;50.950;6.912;2023-08-31T04:27:00;13.80;99.90
18597;DHT22;9428;50.950;6.912;2023-08-31T04:29:49;13.90;99.90
18597;DHT22;9428;50.950;6.912;2023-08-31T04:32:36;13.80;99.90
18597;DHT22;9428;50.950;6.912;2023-08-31T04:35:23;13.90;99.90
18597;DHT22;9428;50.950;6.912;2023-08-31T04:38:11;13.80;99.90
18597;DHT22;9428;50.950;6.912;2023-08-31T04:40:59;13.80;99.90
18597;DHT22;9428;50.950;6.912;2023-08-31T04:43:46;14.40;99.90
18597;DHT22;9428;50.950;6.912;2023-08-31T04:46:36;13.70;99.90
18597;DHT22;9428;50.950;6.912;2023-08-31T04:49:23;13.80;99.90
18597;DHT22;9428;50.950;6.912;2023-08-31T04:52:10;13.70;99.90
18597;DHT22;9428;50.950;6.912;2023-08-31T04:54:57;13.70;99.90
18597;DHT22;9428;50.950;6.912;2023-08-31T04:57:45;13.70;99.90
18597;DHT22;9428;50.950;6.912;2023-08-31T05:00:32;13.60;99.90
18597;DHT22;9428;50.950;6.912;2023-08-31T05:03:20;13.60;99.90
18597;DHT22;9428;50.950;6.912;2023-08-31T05:06:08;13.60;99.90
18597;DHT22;9428;50.950;6.912;2023-08-31T05:08:55;13.70;99.90
18597;DHT22;9428;50.950;6.912;2023-08-31T05:11:42;13.60;99.90
18597;DHT22;9428;50.950;6.912;2023-08-31T05:14:30;13.70;99.90
18597;DHT22;9428;50.950;6.912;2023-08-31T05:17:17;14.20;99.90
18597;DHT22;9428;50.950;6.912;2023-08-31T05:20:07;13.60;99.90
18597;DHT22;9428;50.950;6.912;2023-08-31T05:22:55;13.70;99.90
18597;DHT22;9428;50.950;6.912;2023-08-31T05:25:43;13.80;99.90
18597;DHT22;9428;50.950;6.912;2023-08-31T05:28:30;13.60;99.90
18597;DHT22;9428;50.950;6.912;2023-08-31T05:31:17;13.60;99.90
18597;DHT22;9428;50.950;6.912;2023-08-31T05:34:05;13.60;99.90
18597;DHT22;9428;50.950;6.912;2023-08-31T05:36:53;13.60;99.90
18597;DHT22;9428;50.950;6.912;2023-08-31T05:39:40;13.90;99.90
18597;DHT22;9428;50.950;6.912;2023-08-31T05:42:27;13.90;99.90
18597;DHT22;9428;50.950;6.912;2023-08-31T05:45:15;13.60;99.90
18597;DHT22;9428;50.950;6.912;2023-08-31T05:48:02;13.60;99.90
18597;DHT22;9428;50.950;6.912;2023-08-31T05:50:49;13.60;99.90
18597;DHT22;9428;50.950;6.912;2023-08-31T05:53:39;14.30;99.90
18597;DHT22;9428;50.950;6.912;2023-08-31T05:56:26;13.80;99.90
18597;DHT22;9428;50.950;6.912;2023-08-31T05:59:13;13.80;99.90
18597;DHT22;9428;50.950;6.912;2023-08-31T06:02:00;13.70;99.90
18597;DHT22;9428;50.950;6.912;2023-08-31T06:04:50;13.80;99.90
18597;DHT22;9428;50.950;6.912;2023-08-31T06:07:37;13.90;99.90
18597;DHT22;9428;50.950;6.912;2023-08-31T06:10:26;13.80;99.90
18597;DHT22;9428;50.950;6.912;2023-08-31T06:13:13;13.90;99.90
18597;DHT22;9428;50.950;6.912;2023-08-31T06:16:00;14.30;99.90
18597;DHT22;9428;50.950;6.912;2023-08-31T06:18:48;13.90;99.90
18597;DHT22;9428;50.950;6.912;2023-08-31T06:21:35;14.00;99.90
18597;DHT22;9428;50.950;6.912;2023-08-31T06:24:22;14.20;99.90
18597;DHT22;9428;50.950;6.912;2023-08-31T06:27:11;14.00;99.90
18597;DHT22;9428;50.950;6.912;2023-08-31T06:29:59;14.10;99.90
18597;DHT22;9428;50.950;6.912;2023-08-31T06:32:47;14.10;99.90
18597;DHT22;9428;50.950;6.912;2023-08-31T06:35:36;14.10;99.90
18597;DHT22;9428;50.950;6.912;2023-08-31T06:38:23;14.20;99.90
18597;DHT22;9428;50.950;6.912;2023-08-31T06:41:11;14.20;99.90
18597;DHT22;9428;50.950;6.912;2023-08-31T06:43:59;14.40;99.90
18597;DHT22;9428;50.950;6.912;2023-08-31T06:46:47;14.40;99.90
18597;DHT22;9428;50.950;6.912;2023-08-31T06:49:34;14.40;99.90
18597;DHT22;9428;50.950;6.912;2023-08-31T06:52:21;14.40;99.90
18597;DHT22;9428;50.950;6.912;2023-08-31T06:55:08;14.40;99.90
18597;DHT22;9428;50.950;6.912;2023-08-31T06:57:56;15.30;99.90
18597;DHT22;9428;50.950;6.912;2023-08-31T07:00:45;14.60;99.90
18597;DHT22;9428;50.950;6.912;2023-08-31T07:03:33;14.60;99.90
18597;DHT22;9428;50.950;6.912;2023-08-31T07:06:20;14.70;99.90
18597;DHT22;9428;50.950;6.912;2023-08-31T07:09:08;15.20;99.90
18597;DHT22;9428;50.950;6.912;2023-08-31T07:11:55;14.90;99.90
18597;DHT22;9428;50.950;6.912;2023-08-31T07:14:44;15.00;99.90
18597;DHT22;9428;50.950;6.912;2023-08-31T07:17:32;15.00;99.90
18597;DHT22;9428;50.950;6.912;2023-08-31T07:20:19;14.90;99.90
18597;DHT22;9428;50.950;6.912;2023-08-31T07:23:07;14.90;99.90
18597;DHT22;9428;50.950;6.912;2023-08-31T07:25:56;14.90;99.90
18597;DHT22;9428;50.950;6.912;2023-08-31T07:28:46;15.00;99.90
18597;DHT22;9428;50.950;6.912;2023-08-31T07:31:33;15.10;99.90
18597;DHT22;9428;50.950;6.912;2023-08-31T07:34:22;15.00;99.90
18597;DHT22;9428;50.950;6.912;2023-08-31T07:37:09;15.20;99.90
18597;DHT22;9428;50.950;6.912;2023-08-31T07:39:56;15.20;99.90
18597;DHT22;9428;50.950;6.912;2023-08-31T07:42:43;15.20;99.90
18597;DHT22;9428;50.950;6.912;2023-08-31T07:45:31;15.30;99.90
18597;DHT22;9428;50.950;6.912;2023-08-31T07:48:18;15.40;99.90
18597;DHT22;9428;50.950;6.912;2023-08-31T07:51:07;15.40;99.90
18597;DHT22;9428;50.950;6.912;2023-08-31T07:53:54;15.40;99.90
18597;DHT22;9428;50.950;6.912;2023-08-31T07:56:41;15.40;99.90
18597;DHT22;9428;50.950;6.912;2023-08-31T07:59:29;15.40;99.90
18597;DHT22;9428;50.950;6.912;2023-08-31T08:02:16;15.50;99.90
18597;DHT22;9428;50.950;6.912;2023-08-31T08:05:04;15.60;99.90
18597;DHT22;9428;50.950;6.912;2023-08-31T08:07:53;15.80;99.90
18597;DHT22;9428;50.950;6.912;2023-08-31T08:10:40;15.90;99.90
18597;DHT22;9428;50.950;6.912;2023-08-31T08:13:28;15.90;99.90
18597;DHT22;9428;50.950;6.912;2023-08-31T08:16:16;15.70;99.90
18597;DHT22;9428;50.950;6.912;2023-08-31T08:19:03;15.70;99.90
18597;DHT22;9428;50.950;6.912;2023-08-31T08:21:50;15.80;99.90
18597;DHT22;9428;50.950;6.912;2023-08-31T08:24:39;15.90;99.90
18597;DHT22;9428;50.950;6.912;2023-08-31T08:27:26;16.10;99.90
18597;DHT22;9428;50.950;6.912;2023-08-31T08:30:14;16.20;99.90
18597;DHT22;9428;50.950;6.912;2023-08-31T08:33:01;16.20;99.90
18597;DHT22;9428;50.950;6.912;2023-08-31T08:35:48;16.20;99.90
18597;DHT22;9428;50.950;6.912;2023-08-31T08:38:35;16.20;99.90
18597;DHT22;9428;50.950;6.912;2023-08-31T08:41:24;16.20;99.90
18597;DHT22;9428;50.950;6.912;2023-08-31T08:44:13;16.20;99.90
18597;DHT22;9428;50.950;6.912;2023-08-31T08:47:08;16.20;99.90
18597;DHT22;9428;50.950;6.912;2023-08-31T08:49:56;16.30;99.90
18597;DHT22;9428;50.950;6.912;2023-08-31T08:52:45;16.40;99.90
18597;DHT22;9428;50.950;6.912;2023-08-31T08:55:33;16.40;99.90
18597;DHT22;9428;50.950;6.912;2023-08-31T08:58:22;16.40;99.90
18597;DHT22;9428;50.950;6.912;2023-08-31T09:01:10;16.50;99.90
18597;DHT22;9428;50.950;6.912;2023-08-31T09:03:58;16.70;99.90
18597;DHT22;9428;50.950;6.912;2023-08-31T09:06:45;16.60;99.90
18597;DHT22;9428;50.950;6.912;2023-08-31T09:09:48;16.60;99.90
18597;DHT22;9428;50.950;6.912;2023-08-31T09:12:36;16.70;99.90
18597;DHT22;9428;50.950;6.912;2023-08-31T09:15:35;16.70;99.90
18597;DHT22;9428;50.950;6.912;2023-08-31T09:18:24;16.70;99.90
18597;DHT22;9428;50.950;6.912;2023-08-31T09:21:11;16.80;99.90
18597;DHT22;9428;50.950;6.912;2023-08-31T09:23:59;16.70;99.90
18597;DHT22;9428;50.950;6.912;2023-08-31T09:26:52;16.80;99.90
18597;DHT22;9428;50.950;6.912;2023-08-31T09:29:45;16.80;99.90
18597;DHT22;9428;50.950;6.912;2023-08-31T09:32:33;16.90;99.90
18597;DHT22;9428;50.950;6.912;2023-08-31T09:35:21;16.90;99.90
18597;DHT22;9428;50.950;6.912;2023-08-31T09:38:08;16.80;99.90
18597;DHT22;9428;50.950;6.912;2023-08-31T09:41:04;16.90;99.90
18597;DHT22;9428;50.950;6.912;2023-08-31T09:43:52;16.90;99.90
18597;DHT22;9428;50.950;6.912;2023-08-31T09:46:40;16.90;99.90
18597;DHT22;9428;50.950;6.912;2023-08-31T09:49:29;17.00;99.90
18597;DHT22;9428;50.950;6.912;2023-08-31T09:52:17;17.10;99.90
18597;DHT22;9428;50.950;6.912;2023-08-31T09:55:05;17.20;99.90
18597;DHT22;9428;50.950;6.912;2023-08-31T09:57:56;17.20;99.90
18597;DHT22;9428;50.950;6.912;2023-08-31T10:00:44;17.20;99.90
18597;DHT22;9428;50.950;6.912;2023-08-31T10:03:32;17.40;99.90
18597;DHT22;9428;50.950;6.912;2023-08-31T10:06:22;17.50;99.90
18597;DHT22;9428;50.950;6.912;2023-08-31T10:09:09;17.50;99.90
18597;DHT22;9428;50.950;6.912;2023-08-31T10:11:57;17.40;99.90
18597;DHT22;9428;50.950;6.912;2023-08-31T10:14:45;17.60;99.90
18597;DHT22;9428;50.950;6.912;2023-08-31T10:17:35;17.80;99.90
18597;DHT22;9428;50.950;6.912;2023-08-31T10:20:23;17.70;99.90
18597;DHT22;9428;50.950;6.912;2023-08-31T10:23:15;17.90;99.90
18597;DHT22;9428;50.950;6.912;2023-08-31T10:26:03;17.80;99.90
18597;DHT22;9428;50.950;6.912;2023-08-31T10:28:52;17.60;99.90
18597;DHT22;9428;50.950;6.912;2023-08-31T10:31:39;17.60;99.90
18597;DHT22;9428;50.950;6.912;2023-08-31T10:34:36;17.70;99.90
18597;DHT22;9428;50.950;6.912;2023-08-31T10:37:27;17.60;99.90
18597;DHT22;9428;50.950;6.912;2023-08-31T10:40:16;17.70;99.90
18597;DHT22;9428;50.950;6.912;2023-08-31T10:43:15;17.90;99.90
18597;DHT22;9428;50.950;6.912;2023-08-31T10:46:02;18.10;99.90
18597;DHT22;9428;50.950;6.912;2023-08-31T10:48:50;18.20;99.90
18597;DHT22;9428;50.950;6.912;2023-08-31T10:51:39;18.30;99.90
18597;DHT22;9428;50.950;6.912;2023-08-31T10:54:30;18.20;99.90
18597;DHT22;9428;50.950;6.912;2023-08-31T10:57:30;18.20;99.90
18597;DHT22;9428;50.950;6.912;2023-08-31T11:00:50;17.90;99.90
18597;DHT22;9428;50.950;6.912;2023-08-31T11:03:59;18.00;99.90
18597;DHT22;9428;50.950;6.912;2023-08-31T11:06:46;18.10;99.90
18597;DHT22;9428;50.950;6.912;2023-08-31T11:09:33;18.30;99.90
18597;DHT22;9428;50.950;6.912;2023-08-31T11:12:23;18.50;99.90
18597;DHT22;9428;50.950;6.912;2023-08-31T11:15:12;18.50;99.90
18597;DHT22;9428;50.950;6.912;2023-08-31T11:18:00;18.60;99.90
18597;DHT22;9428;50.950;6.912;2023-08-31T11:20:47;18.70;99.90
18597;DHT22;9428;50.950;6.912;2023-08-31T11:23:35;18.70;99.90
18597;DHT22;9428;50.950;6.912;2023-08-31T11:26:23;18.80;99.90
18597;DHT22;9428;50.950;6.912;2023-08-31T11:29:12;18.80;99.90
18597;DHT22;9428;50.950;6.912;2023-08-31T11:31:59;18.70;99.90
18597;DHT22;9428;50.950;6.912;2023-08-31T11:34:48;18.50;99.90
18597;DHT22;9428;50.950;6.912;2023-08-31T11:37:36;18.60;99.90
18597;DHT22;9428;50.950;6.912;2023-08-31T11:40:26;18.60;99.90
18597;DHT22;9428;50.950;6.912;2023-08-31T11:43:15;18.50;99.90
18597;DHT22;9428;50.950;6.912;2023-08-31T11:46:04;18.60;99.90
18597;DHT22;9428;50.950;6.912;2023-08-31T11:48:52;18.70;99.90
18597;DHT22;9428;50.950;6.912;2023-08-31T11:51:41;18.60;99.90
18597;DHT22;9428;50.950;6.912;2023-08-31T11:54:29;18.40;99.90
18597;DHT22;9428;50.950;6.912;2023-08-31T11:57:16;18.20;99.90
18597;DHT22;9428;50.950;6.912;2023-08-31T12:00:04;18.10;99.90
18597;DHT22;9428;50.950;6.912;2023-08-31T12:03:00;18.10;99.90
18597;DHT22;9428;50.950;6.912;2023-08-31T12:05:52;18.00;99.90
18597;DHT22;9428;50.950;6.912;2023-08-31T12:08:41;18.10;99.90
18597;DHT22;9428;50.950;6.912;2023-08-31T12:11:28;18.20;99.90
18597;DHT22;9428;50.950;6.912;2023-08-31T12:14:19;18.30;99.90
18597;DHT22;9428;50.950;6.912;2023-08-31T12:17:08;18.20;99.90
18597;DHT22;9428;50.950;6.912;2023-08-31T12:20:02;18.40;99.90
18597;DHT22;9428;50.950;6.912;2023-08-31T12:22:50;18.40;99.90
18597;DHT22;9428;50.950;6.912;2023-08-31T12:25:37;18.60;99.90
18597;DHT22;9428;50.950;6.912;2023-08-31T12:28:26;18.60;99.90
18597;DHT22;9428;50.950;6.912;2023-08-31T12:31:13;18.70;99.90
18597;DHT22;9428;50.950;6.912;2023-08-31T12:34:00;18.70;99.90
18597;DHT22;9428;50.950;6.912;2023-08-31T12:36:53;18.60;99.90
18597;DHT22;9428;50.950;6.912;2023-08-31T12:39:41;18.20;99.90
18597;DHT22;9428;50.950;6.912;2023-08-31T12:42:31;17.90;99.90
18597;DHT22;9428;50.950;6.912;2023-08-31T12:45:19;17.80;99.90
18597;DHT22;9428;50.950;6.912;2023-08-31T12:48:08;17.80;99.90
18597;DHT22;9428;50.950;6.912;2023-08-31T12:50:55;17.90;99.90
18597;DHT22;9428;50.950;6.912;2023-08-31T12:53:44;18.00;99.90
18597;DHT22;9428;50.950;6.912;2023-08-31T12:56:32;18.00;99.90
18597;DHT22;9428;50.950;6.912;2023-08-31T12:59:19;17.90;99.90
18597;DHT22;9428;50.950;6.912;2023-08-31T13:02:07;18.00;99.90
18597;DHT22;9428;50.950;6.912;2023-08-31T13:04:56;18.10;99.90
18597;DHT22;9428;50.950;6.912;2023-08-31T13:07:44;18.30;99.90
18597;DHT22;9428;50.950;6.912;2023-08-31T13:10:32;18.40;99.90
18597;DHT22;9428;50.950;6.912;2023-08-31T13:13:20;18.40;99.90
18597;DHT22;9428;50.950;6.912;2023-08-31T13:16:07;18.50;99.90
18597;DHT22;9428;50.950;6.912;2023-08-31T13:18:54;18.60;99.90
18597;DHT22;9428;50.950;6.912;2023-08-31T13:21:41;18.60;99.90
18597;DHT22;9428;50.950;6.912;2023-08-31T13:24:29;18.70;99.90
18597;DHT22;9428;50.950;6.912;2023-08-31T13:27:18;18.90;99.90
18597;DHT22;9428;50.950;6.912;2023-08-31T13:30:07;18.90;99.90
18597;DHT22;9428;50.950;6.912;2023-08-31T13:32:55;18.90;99.90
18597;DHT22;9428;50.950;6.912;2023-08-31T13:35:42;18.90;99.90
18597;DHT22;9428;50.950;6.912;2023-08-31T13:38:29;18.80;99.90
18597;DHT22;9428;50.950;6.912;2023-08-31T13:41:16;18.90;99.90
18597;DHT22;9428;50.950;6.912;2023-08-31T13:44:05;18.80;99.90
18597;DHT22;9428;50.950;6.912;2023-08-31T13:46:52;18.70;99.90
18597;DHT22;9428;50.950;6.912;2023-08-31T13:49:40;18.80;99.90
18597;DHT22;9428;50.950;6.912;2023-08-31T13:52:27;18.80;99.90
18597;DHT22;9428;50.950;6.912;2023-08-31T13:55:14;18.90;99.90
18597;DHT22;9428;50.950;6.912;2023-08-31T13:58:04;18.90;99.90
18597;DHT22;9428;50.950;6.912;2023-08-31T14:00:53;18.90;99.90
18597;DHT22;9428;50.950;6.912;2023-08-31T14:03:43;18.80;99.90
18597;DHT22;9428;50.950;6.912;2023-08-31T14:06:30;18.80;99.90
18597;DHT22;9428;50.950;6.912;2023-08-31T14:09:17;18.90;99.90
18597;DHT22;9428;50.950;6.912;2023-08-31T14:12:06;18.80;99.90
18597;DHT22;9428;50.950;6.912;2023-08-31T14:14:53;18.90;99.90
18597;DHT22;9428;50.950;6.912;2023-08-31T14:17:42;19.00;99.90
18597;DHT22;9428;50.950;6.912;2023-08-31T14:20:29;19.00;99.90
18597;DHT22;9428;50.950;6.912;2023-08-31T14:23:16;19.00;99.90
18597;DHT22;9428;50.950;6.912;2023-08-31T14:26:03;19.00;99.90
18597;DHT22;9428;50.950;6.912;2023-08-31T14:28:52;19.10;99.90
18597;DHT22;9428;50.950;6.912;2023-08-31T14:31:39;19.20;99.90
18597;DHT22;9428;50.950;6.912;2023-08-31T14:34:28;19.20;99.90
18597;DHT22;9428;50.950;6.912;2023-08-31T14:37:16;19.20;99.90
18597;DHT22;9428;50.950;6.912;2023-08-31T14:40:03;19.20;99.90
18597;DHT22;9428;50.950;6.912;2023-08-31T14:42:52;19.30;99.90
18597;DHT22;9428;50.950;6.912;2023-08-31T14:45:40;19.20;99.90
18597;DHT22;9428;50.950;6.912;2023-08-31T14:48:27;19.20;99.90
18597;DHT22;9428;50.950;6.912;2023-08-31T14:51:17;19.30;99.90
18597;DHT22;9428;50.950;6.912;2023-08-31T14:54:04;19.50;99.90
18597;DHT22;9428;50.950;6.912;2023-08-31T14:56:52;19.50;99.90
18597;DHT22;9428;50.950;6.912;2023-08-31T14:59:39;19.50;99.90
18597;DHT22;9428;50.950;6.912;2023-08-31T15:02:27;19.50;99.90
18597;DHT22;9428;50.950;6.912;2023-08-31T15:05:15;19.60;99.90
18597;DHT22;9428;50.950;6.912;2023-08-31T15:08:05;19.50;99.90
18597;DHT22;9428;50.950;6.912;2023-08-31T15:10:53;19.50;99.90
18597;DHT22;9428;50.950;6.912;2023-08-31T15:13:41;19.60;99.90
18597;DHT22;9428;50.950;6.912;2023-08-31T15:16:29;19.40;99.90
18597;DHT22;9428;50.950;6.912;2023-08-31T15:19:17;19.30;99.90
18597;DHT22;9428;50.950;6.912;2023-08-31T15:22:05;19.30;99.90
18597;DHT22;9428;50.950;6.912;2023-08-31T15:24:53;19.20;99.90
18597;DHT22;9428;50.950;6.912;2023-08-31T15:27:41;19.30;99.90
18597;DHT22;9428;50.950;6.912;2023-08-31T15:30:28;19.20;99.90
18597;DHT22;9428;50.950;6.912;2023-08-31T15:33:15;19.20;99.90
18597;DHT22;9428;50.950;6.912;2023-08-31T15:36:04;19.20;99.90
18597;DHT22;9428;50.950;6.912;2023-08-31T15:38:52;19.30;99.90
18597;DHT22;9428;50.950;6.912;2023-08-31T15:41:41;19.10;99.90
18597;DHT22;9428;50.950;6.912;2023-08-31T15:44:28;19.10;99.90
18597;DHT22;9428;50.950;6.912;2023-08-31T15:47:15;19.10;99.90
18597;DHT22;9428;50.950;6.912;2023-08-31T15:50:03;19.10;99.90
18597;DHT22;9428;50.950;6.912;2023-08-31T15:52:50;19.20;99.90
18597;DHT22;9428;50.950;6.912;2023-08-31T15:55:38;19.20;99.90
18597;DHT22;9428;50.950;6.912;2023-08-31T15:58:26;19.20;99.90
18597;DHT22;9428;50.950;6.912;2023-08-31T16:01:16;19.20;99.90
18597;DHT22;9428;50.950;6.912;2023-08-31T16:04:03;19.20;99.90
18597;DHT22;9428;50.950;6.912;2023-08-31T16:06:50;19.10;99.90
18597;DHT22;9428;50.950;6.912;2023-08-31T16:09:38;19.10;99.90
18597;DHT22;9428;50.950;6.912;2023-08-31T16:12:25;19.00;99.90
18597;DHT22;9428;50.950;6.912;2023-08-31T16:15:14;18.90;99.90
18597;DHT22;9428;50.950;6.912;2023-08-31T16:18:01;18.90;99.90
18597;DHT22;9428;50.950;6.912;2023-08-31T16:20:49;18.90;99.90
18597;DHT22;9428;50.950;6.912;2023-08-31T16:23:36;18.90;99.90
18597;DHT22;9428;50.950;6.912;2023-08-31T16:26:24;18.90;99.90
18597;DHT22;9428;50.950;6.912;2023-08-31T16:29:15;18.90;99.90
18597;DHT22;9428;50.950;6.912;2023-08-31T16:32:06;18.80;99.90
18597;DHT22;9428;50.950;6.912;2023-08-31T16:34:53;18.80;99.90
18597;DHT22;9428;50.950;6.912;2023-08-31T16:37:41;18.80;99.90
18597;DHT22;9428;50.950;6.912;2023-08-31T16:40:28;18.80;99.90
18597;DHT22;9428;50.950;6.912;2023-08-31T16:43:16;18.80;99.90
18597;DHT22;9428;50.950;6.912;2023-08-31T16:46:03;18.70;99.90
18597;DHT22;9428;50.950;6.912;2023-08-31T16:48:52;18.80;99.90
18597;DHT22;9428;50.950;6.912;2023-08-31T16:51:39;18.80;99.90
18597;DHT22;9428;50.950;6.912;2023-08-31T16:54:27;18.70;99.90
18597;DHT22;9428;50.950;6.912;2023-08-31T16:57:14;18.70;99.90
18597;DHT22;9428;50.950;6.912;2023-08-31T17:00:02;18.70;99.90
18597;DHT22;9428;50.950;6.912;2023-08-31T17:02:51;18.70;99.90
18597;DHT22;9428;50.950;6.912;2023-08-31T17:05:40;18.60;99.90
18597;DHT22;9428;50.950;6.912;2023-08-31T17:08:27;18.50;99.90
18597;DHT22;9428;50.950;6.912;2023-08-31T17:11:15;18.50;99.90
18597;DHT22;9428;50.950;6.912;2023-08-31T17:14:03;18.50;99.90
18597;DHT22;9428;50.950;6.912;2023-08-31T17:16:52;17.80;99.90
18597;DHT22;9428;50.950;6.912;2023-08-31T17:19:39;18.40;99.90
18597;DHT22;9428;50.950;6.912;2023-08-31T17:22:28;18.50;99.90
18597;DHT22;9428;50.950;6.912;2023-08-31T17:25:15;18.50;99.90
18597;DHT22;9428;50.950;6.912;2023-08-31T17:28:03;18.40;99.90
18597;DHT22;9428;50.950;6.912;2023-08-31T17:30:52;18.40;99.90
18597;DHT22;9428;50.950;6.912;2023-08-31T17:33:41;18.40;99.90
18597;DHT22;9428;50.950;6.912;2023-08-31T17:36:30;18.40;99.90
18597;DHT22;9428;50.950;6.912;2023-08-31T17:39:18;18.30;99.90
18597;DHT22;9428;50.950;6.912;2023-08-31T17:42:06;18.20;99.90
18597;DHT22;9428;50.950;6.912;2023-08-31T17:44:53;18.20;99.90
18597;DHT22;9428;50.950;6.912;2023-08-31T17:47:41;18.20;99.90
18597;DHT22;9428;50.950;6.912;2023-08-31T17:50:28;18.10;99.90
18597;DHT22;9428;50.950;6.912;2023-08-31T17:53:17;18.10;99.90
18597;DHT22;9428;50.950;6.912;2023-08-31T17:56:07;18.10;99.90
18597;DHT22;9428;50.950;6.912;2023-08-31T17:58:54;18.10;99.90